sensor_id;sensor_type;location;lat;lon;timestamp;noise_LAeq;noise_LA_min;noise_LA_max;noise_LA01;noise_LA95
71034;Laerm;58847;52.378;4.740;2022-12-10T00:00:01;40.89;38.00;45.04;;
71034;Laerm;58847;52.378;4.740;2022-12-10T00:00:12;40.60;37.95;45.33;;
71034;Laerm;58847;52.378;4.740;2022-12-10T00:00:22;40.71;38.16;45.41;;
71034;Laerm;58847;52.378;4.740;2022-12-10T00:00:33;41.00;38.86;43.87;;
71034;Laerm;58847;52.378;4.740;2022-12-10T00:00:43;40.05;37.80;43.51;;
71034;Laerm;58847;52.378;4.740;2022-12-10T00:00:53;39.43;37.22;42.77;;
71034;Laerm;58847;52.378;4.740;2022-12-10T00:01:07;39.37;36.03;43.86;;
71034;Laerm;58847;52.378;4.740;2022-12-10T00:01:18;39.43;36.61;45.55;;
71034;Laerm;58847;52.378;4.740;2022-12-10T00:01:29;39.76;36.91;43.00;;
71034;Laerm;58847;52.378;4.740;2022-12-10T00:01:41;39.73;37.69;43.10;;
71034;Laerm;58847;52.378;4.740;2022-12-10T00:01:51;40.19;37.77;43.61;;
71034;Laerm;58847;52.378;4.740;2022-12-10T00:02:01;40.89;37.23;44.06;;
71034;Laerm;58847;52.378;4.740;2022-12-10T00:02:12;44.31;40.97;49.12;;
71034;Laerm;58847;52.378;4.740;2022-12-10T00:02:22;43.48;39.53;46.50;;
71034;Laerm;58847;52.378;4.740;2022-12-10T00:02:32;44.70;40.00;54.12;;
71034;Laerm;58847;52.378;4.740;2022-12-10T00:02:42;44.38;40.36;49.88;;
71034;Laerm;58847;52.378;4.740;2022-12-10T00:02:53;45.94;40.83;50.27;;
71034;Laerm;58847;52.378;4.740;2022-12-10T00:03:04;45.42;41.90;49.65;;
71034;Laerm;58847;52.378;4.740;2022-12-10T00:03:14;44.79;41.25;48.45;;
71034;Laerm;58847;52.378;4.740;2022-12-10T00:03:25;43.91;38.83;49.11;;
71034;Laerm;58847;52.378;4.740;2022-12-10T00:03:35;40.79;38.11;44.34;;
71034;Laerm;58847;52.378;4.740;2022-12-10T00:03:45;40.68;38.05;46.83;;
71034;Laerm;58847;52.378;4.740;2022-12-10T00:03:56;40.43;37.81;50.05;;
71034;Laerm;58847;52.378;4.740;2022-12-10T00:04:06;39.65;37.42;43.23;;
71034;Laerm;58847;52.378;4.740;2022-12-10T00:04:17;40.54;37.70;50.59;;
71034;Laerm;58847;52.378;4.740;2022-12-10T00:04:28;40.25;37.80;44.18;;
71034;Laerm;58847;52.378;4.740;2022-12-10T00:04:38;40.35;37.37;43.64;;
71034;Laerm;58847;52.378;4.740;2022-12-10T00:04:48;40.15;37.40;43.76;;
71034;Laerm;58847;52.378;4.740;2022-12-10T00:04:58;41.13;37.83;48.59;;
71034;Laerm;58847;52.378;4.740;2022-12-10T00:05:09;42.51;39.06;46.72;;
71034;Laerm;58847;52.378;4.740;2022-12-10T00:05:19;42.58;39.02;45.78;;
71034;Laerm;58847;52.378;4.740;2022-12-10T00:05:29;43.33;39.71;48.05;;
71034;Laerm;58847;52.378;4.740;2022-12-10T00:05:40;44.62;40.03;50.59;;
71034;Laerm;58847;52.378;4.740;2022-12-10T00:05:50;43.53;40.10;48.01;;
71034;Laerm;58847;52.378;4.740;2022-12-10T00:06:07;43.07;40.11;45.81;;
71034;Laerm;58847;52.378;4.740;2022-12-10T00:06:19;42.92;38.64;46.64;;
71034;Laerm;58847;52.378;4.740;2022-12-10T00:06:31;41.37;39.08;44.20;;
71034;Laerm;58847;52.378;4.740;2022-12-10T00:06:41;40.73;38.13;46.12;;
71034;Laerm;58847;52.378;4.740;2022-12-10T00:06:52;41.94;39.03;53.71;;
71034;Laerm;58847;52.378;4.740;2022-12-10T00:07:02;40.87;38.16;45.45;;
71034;Laerm;58847;52.378;4.740;2022-12-10T00:07:13;40.30;38.26;43.49;;
71034;Laerm;58847;52.378;4.740;2022-12-10T00:07:24;41.13;37.79;44.66;;
71034;Laerm;58847;52.378;4.740;2022-12-10T00:07:34;40.39;37.87;44.93;;
71034;Laerm;58847;52.378;4.740;2022-12-10T00:07:44;40.28;36.53;44.26;;
71034;Laerm;58847;52.378;4.740;2022-12-10T00:07:54;40.24;38.17;43.16;;
71034;Laerm;58847;52.378;4.740;2022-12-10T00:08:05;39.93;37.42;43.35;;
71034;Laerm;58847;52.378;4.740;2022-12-10T00:08:15;39.45;36.34;44.54;;
71034;Laerm;58847;52.378;4.740;2022-12-10T00:08:25;39.43;36.13;42.73;;
71034;Laerm;58847;52.378;4.740;2022-12-10T00:08:39;39.86;37.00;47.60;;
71034;Laerm;58847;52.378;4.740;2022-12-10T00:08:49;38.90;36.23;44.93;;
71034;Laerm;58847;52.378;4.740;2022-12-10T00:09:02;38.79;35.76;43.92;;
71034;Laerm;58847;52.378;4.740;2022-12-10T00:09:14;39.55;36.62;44.53;;
71034;Laerm;58847;52.378;4.740;2022-12-10T00:09:25;39.61;36.86;43.43;;
71034;Laerm;58847;52.378;4.740;2022-12-10T00:09:35;40.53;37.31;47.49;;
71034;Laerm;58847;52.378;4.740;2022-12-10T00:09:45;41.14;38.67;43.99;;
71034;Laerm;58847;52.378;4.740;2022-12-10T00:09:55;40.98;38.12;43.76;;
71034;Laerm;58847;52.378;4.740;2022-12-10T00:10:06;41.39;38.62;44.94;;
71034;Laerm;58847;52.378;4.740;2022-12-10T00:10:16;41.23;35.50;45.26;;
71034;Laerm;58847;52.378;4.740;2022-12-10T00:10:26;40.66;37.44;44.34;;
71034;Laerm;58847;52.378;4.740;2022-12-10T00:10:40;41.18;37.36;44.98;;
71034;Laerm;58847;52.378;4.740;2022-12-10T00:10:50;41.62;38.32;47.81;;
71034;Laerm;58847;52.378;4.740;2022-12-10T00:11:04;40.03;37.16;44.23;;
71034;Laerm;58847;52.378;4.740;2022-12-10T00:11:15;39.15;36.36;44.90;;
71034;Laerm;58847;52.378;4.740;2022-12-10T00:11:26;38.91;36.10;42.32;;
71034;Laerm;58847;52.378;4.740;2022-12-10T00:11:36;39.07;35.96;42.89;;
71034;Laerm;58847;52.378;4.740;2022-12-10T00:11:49;39.13;36.69;42.12;;
71034;Laerm;58847;52.378;4.740;2022-12-10T00:11:59;38.73;36.31;42.82;;
71034;Laerm;58847;52.378;4.740;2022-12-10T00:12:09;38.55;36.01;42.72;;
71034;Laerm;58847;52.378;4.740;2022-12-10T00:12:20;39.13;36.83;42.68;;
71034;Laerm;58847;52.378;4.740;2022-12-10T00:12:30;39.16;36.50;45.82;;
71034;Laerm;58847;52.378;4.740;2022-12-10T00:12:40;39.18;36.57;42.16;;
71034;Laerm;58847;52.378;4.740;2022-12-10T00:12:51;39.19;36.45;44.18;;
71034;Laerm;58847;52.378;4.740;2022-12-10T00:13:01;39.37;37.01;49.96;;
71034;Laerm;58847;52.378;4.740;2022-12-10T00:13:14;39.17;36.47;43.94;;
71034;Laerm;58847;52.378;4.740;2022-12-10T00:13:32;38.23;35.68;42.12;;
71034;Laerm;58847;52.378;4.740;2022-12-10T00:13:43;41.57;36.37;58.04;;
71034;Laerm;58847;52.378;4.740;2022-12-10T00:13:54;39.19;35.98;44.90;;
71034;Laerm;58847;52.378;4.740;2022-12-10T00:14:04;38.92;36.19;42.68;;
71034;Laerm;58847;52.378;4.740;2022-12-10T00:14:16;39.19;36.87;44.73;;
71034;Laerm;58847;52.378;4.740;2022-12-10T00:14:27;39.56;36.93;44.37;;
71034;Laerm;58847;52.378;4.740;2022-12-10T00:14:37;39.82;37.78;44.35;;
71034;Laerm;58847;52.378;4.740;2022-12-10T00:14:47;39.54;36.00;44.70;;
71034;Laerm;58847;52.378;4.740;2022-12-10T00:14:57;39.05;36.46;41.81;;
71034;Laerm;58847;52.378;4.740;2022-12-10T00:15:08;39.32;36.45;44.08;;
71034;Laerm;58847;52.378;4.740;2022-12-10T00:15:18;39.12;36.64;43.63;;
71034;Laerm;58847;52.378;4.740;2022-12-10T00:15:28;40.82;36.38;55.78;;
71034;Laerm;58847;52.378;4.740;2022-12-10T00:15:39;44.77;36.80;61.19;;
71034;Laerm;58847;52.378;4.740;2022-12-10T00:15:49;39.85;36.54;45.72;;
71034;Laerm;58847;52.378;4.740;2022-12-10T00:16:00;39.64;36.54;44.20;;
71034;Laerm;58847;52.378;4.740;2022-12-10T00:16:11;39.67;36.68;44.99;;
71034;Laerm;58847;52.378;4.740;2022-12-10T00:16:23;40.27;36.31;44.42;;
71034;Laerm;58847;52.378;4.740;2022-12-10T00:16:36;40.38;37.68;46.01;;
71034;Laerm;58847;52.378;4.740;2022-12-10T00:16:46;39.28;36.06;42.55;;
71034;Laerm;58847;52.378;4.740;2022-12-10T00:16:57;38.79;36.29;44.26;;
71034;Laerm;58847;52.378;4.740;2022-12-10T00:17:07;38.52;36.14;42.35;;
71034;Laerm;58847;52.378;4.740;2022-12-10T00:17:17;39.91;37.14;43.95;;
71034;Laerm;58847;52.378;4.740;2022-12-10T00:17:27;40.07;37.38;45.12;;
71034;Laerm;58847;52.378;4.740;2022-12-10T00:17:38;39.98;36.10;46.97;;
71034;Laerm;58847;52.378;4.740;2022-12-10T00:17:48;38.45;35.68;42.90;;
71034;Laerm;58847;52.378;4.740;2022-12-10T00:17:58;39.72;36.28;45.72;;
71034;Laerm;58847;52.378;4.740;2022-12-10T00:18:08;38.57;34.89;44.67;;
71034;Laerm;58847;52.378;4.740;2022-12-10T00:18:19;38.29;35.06;43.52;;
71034;Laerm;58847;52.378;4.740;2022-12-10T00:18:29;38.31;35.29;45.08;;
71034;Laerm;58847;52.378;4.740;2022-12-10T00:18:40;38.33;35.43;42.10;;
71034;Laerm;58847;52.378;4.740;2022-12-10T00:18:51;38.63;35.31;42.16;;
71034;Laerm;58847;52.378;4.740;2022-12-10T00:19:02;38.59;35.76;43.90;;
71034;Laerm;58847;52.378;4.740;2022-12-10T00:19:12;39.39;36.30;46.26;;
71034;Laerm;58847;52.378;4.740;2022-12-10T00:19:22;39.32;35.94;43.41;;
71034;Laerm;58847;52.378;4.740;2022-12-10T00:19:33;39.47;37.41;42.65;;
71034;Laerm;58847;52.378;4.740;2022-12-10T00:19:44;38.81;35.99;43.00;;
71034;Laerm;58847;52.378;4.740;2022-12-10T00:19:54;38.23;34.93;43.70;;
71034;Laerm;58847;52.378;4.740;2022-12-10T00:20:05;37.96;34.71;42.82;;
71034;Laerm;58847;52.378;4.740;2022-12-10T00:20:21;38.27;34.51;49.00;;
71034;Laerm;58847;52.378;4.740;2022-12-10T00:20:32;39.09;35.22;50.05;;
71034;Laerm;58847;52.378;4.740;2022-12-10T00:20:42;38.46;35.49;43.13;;
71034;Laerm;58847;52.378;4.740;2022-12-10T00:20:52;37.65;34.65;42.63;;
71034;Laerm;58847;52.378;4.740;2022-12-10T00:21:03;38.13;35.52;42.53;;
71034;Laerm;58847;52.378;4.740;2022-12-10T00:21:18;38.92;36.53;43.49;;
71034;Laerm;58847;52.378;4.740;2022-12-10T00:21:29;38.93;35.59;45.81;;
71034;Laerm;58847;52.378;4.740;2022-12-10T00:21:43;39.06;36.22;45.91;;
71034;Laerm;58847;52.378;4.740;2022-12-10T00:21:53;43.16;36.91;57.82;;
71034;Laerm;58847;52.378;4.740;2022-12-10T00:22:04;41.15;36.42;44.81;;
71034;Laerm;58847;52.378;4.740;2022-12-10T00:22:14;39.12;35.64;43.37;;
71034;Laerm;58847;52.378;4.740;2022-12-10T00:22:24;41.05;36.49;45.68;;
71034;Laerm;58847;52.378;4.740;2022-12-10T00:22:34;39.59;36.16;42.99;;
71034;Laerm;58847;52.378;4.740;2022-12-10T00:22:45;39.76;36.50;43.40;;
71034;Laerm;58847;52.378;4.740;2022-12-10T00:22:55;40.21;36.52;46.97;;
71034;Laerm;58847;52.378;4.740;2022-12-10T00:23:05;42.51;36.24;56.86;;
71034;Laerm;58847;52.378;4.740;2022-12-10T00:23:16;39.01;35.94;44.90;;
71034;Laerm;58847;52.378;4.740;2022-12-10T00:23:26;39.64;36.35;42.76;;
71034;Laerm;58847;52.378;4.740;2022-12-10T00:23:36;39.08;36.15;45.02;;
71034;Laerm;58847;52.378;4.740;2022-12-10T00:23:47;38.74;36.54;42.96;;
71034;Laerm;58847;52.378;4.740;2022-12-10T00:23:58;38.73;35.98;44.04;;
71034;Laerm;58847;52.378;4.740;2022-12-10T00:24:09;38.31;35.16;41.74;;
71034;Laerm;58847;52.378;4.740;2022-12-10T00:24:19;38.70;35.43;42.53;;
71034;Laerm;58847;52.378;4.740;2022-12-10T00:24:29;39.35;36.14;42.89;;
71034;Laerm;58847;52.378;4.740;2022-12-10T00:24:42;38.30;34.70;44.94;;
71034;Laerm;58847;52.378;4.740;2022-12-10T00:24:52;38.46;35.63;42.25;;
71034;Laerm;58847;52.378;4.740;2022-12-10T00:25:02;40.07;35.91;44.06;;
71034;Laerm;58847;52.378;4.740;2022-12-10T00:25:12;38.66;35.32;44.15;;
71034;Laerm;58847;52.378;4.740;2022-12-10T00:25:23;38.20;35.27;48.12;;
71034;Laerm;58847;52.378;4.740;2022-12-10T00:25:33;39.54;36.87;42.91;;
71034;Laerm;58847;52.378;4.740;2022-12-10T00:25:43;39.83;37.59;43.00;;
71034;Laerm;58847;52.378;4.740;2022-12-10T00:25:53;40.30;37.36;47.01;;
71034;Laerm;58847;52.378;4.740;2022-12-10T00:26:08;39.44;37.11;43.85;;
71034;Laerm;58847;52.378;4.740;2022-12-10T00:26:20;40.43;37.25;58.79;;
71034;Laerm;58847;52.378;4.740;2022-12-10T00:26:32;51.79;39.99;64.34;;
71034;Laerm;58847;52.378;4.740;2022-12-10T00:26:43;45.08;37.64;59.04;;
71034;Laerm;58847;52.378;4.740;2022-12-10T00:26:58;50.11;36.77;65.00;;
71034;Laerm;58847;52.378;4.740;2022-12-10T00:27:08;49.87;35.92;65.54;;
71034;Laerm;58847;52.378;4.740;2022-12-10T00:27:18;38.77;35.51;43.77;;
71034;Laerm;58847;52.378;4.740;2022-12-10T00:27:30;38.25;35.04;50.13;;
71034;Laerm;58847;52.378;4.740;2022-12-10T00:27:40;38.24;34.86;41.98;;
71034;Laerm;58847;52.378;4.740;2022-12-10T00:27:50;38.73;34.68;49.15;;
71034;Laerm;58847;52.378;4.740;2022-12-10T00:28:00;39.02;34.83;49.35;;
71034;Laerm;58847;52.378;4.740;2022-12-10T00:28:11;40.01;36.94;44.11;;
71034;Laerm;58847;52.378;4.740;2022-12-10T00:28:21;40.20;37.05;45.53;;
71034;Laerm;58847;52.378;4.740;2022-12-10T00:28:31;43.32;38.25;52.31;;
71034;Laerm;58847;52.378;4.740;2022-12-10T00:28:42;39.51;35.85;46.96;;
71034;Laerm;58847;52.378;4.740;2022-12-10T00:28:53;40.19;36.50;43.30;;
71034;Laerm;58847;52.378;4.740;2022-12-10T00:29:04;40.86;34.91;46.21;;
71034;Laerm;58847;52.378;4.740;2022-12-10T00:29:15;41.87;35.36;53.17;;
71034;Laerm;58847;52.378;4.740;2022-12-10T00:29:25;40.22;34.09;49.39;;
71034;Laerm;58847;52.378;4.740;2022-12-10T00:29:35;37.72;33.64;44.81;;
71034;Laerm;58847;52.378;4.740;2022-12-10T00:29:46;37.32;33.70;42.55;;
71034;Laerm;58847;52.378;4.740;2022-12-10T00:29:56;41.61;33.96;56.81;;
71034;Laerm;58847;52.378;4.740;2022-12-10T00:30:06;37.64;34.10;45.41;;
71034;Laerm;58847;52.378;4.740;2022-12-10T00:30:16;39.86;34.57;48.68;;
71034;Laerm;58847;52.378;4.740;2022-12-10T00:30:27;42.16;38.19;47.36;;
71034;Laerm;58847;52.378;4.740;2022-12-10T00:30:37;42.61;37.58;47.12;;
71034;Laerm;58847;52.378;4.740;2022-12-10T00:30:47;40.31;34.45;57.18;;
71034;Laerm;58847;52.378;4.740;2022-12-10T00:31:04;40.81;34.95;58.07;;
71034;Laerm;58847;52.378;4.740;2022-12-10T00:31:31;38.03;34.83;44.75;;
71034;Laerm;58847;52.378;4.740;2022-12-10T00:31:41;38.71;35.39;45.56;;
71034;Laerm;58847;52.378;4.740;2022-12-10T00:31:51;41.12;35.44;49.23;;
71034;Laerm;58847;52.378;4.740;2022-12-10T00:32:01;38.35;35.16;44.29;;
71034;Laerm;58847;52.378;4.740;2022-12-10T00:32:15;42.62;35.08;64.38;;
71034;Laerm;58847;52.378;4.740;2022-12-10T00:32:25;44.11;38.03;53.50;;
71034;Laerm;58847;52.378;4.740;2022-12-10T00:32:36;40.10;36.67;50.35;;
71034;Laerm;58847;52.378;4.740;2022-12-10T00:32:46;40.57;35.41;45.73;;
71034;Laerm;58847;52.378;4.740;2022-12-10T00:32:56;37.38;33.53;42.50;;
71034;Laerm;58847;52.378;4.740;2022-12-10T00:33:06;37.02;34.01;42.61;;
71034;Laerm;58847;52.378;4.740;2022-12-10T00:33:16;37.14;33.39;43.55;;
71034;Laerm;58847;52.378;4.740;2022-12-10T00:33:27;36.97;33.25;45.98;;
71034;Laerm;58847;52.378;4.740;2022-12-10T00:33:37;37.67;34.44;43.44;;
71034;Laerm;58847;52.378;4.740;2022-12-10T00:33:49;41.09;34.17;49.96;;
71034;Laerm;58847;52.378;4.740;2022-12-10T00:34:01;39.17;33.67;48.81;;
71034;Laerm;58847;52.378;4.740;2022-12-10T00:34:12;42.71;34.35;53.85;;
71034;Laerm;58847;52.378;4.740;2022-12-10T00:34:22;36.65;33.61;41.67;;
71034;Laerm;58847;52.378;4.740;2022-12-10T00:34:32;37.07;34.18;41.65;;
71034;Laerm;58847;52.378;4.740;2022-12-10T00:34:48;36.48;33.32;44.75;;
71034;Laerm;58847;52.378;4.740;2022-12-10T00:34:59;36.24;33.02;42.20;;
71034;Laerm;58847;52.378;4.740;2022-12-10T00:35:09;36.45;32.64;45.48;;
71034;Laerm;58847;52.378;4.740;2022-12-10T00:35:19;36.84;33.59;43.86;;
71034;Laerm;58847;52.378;4.740;2022-12-10T00:35:30;36.73;32.95;43.49;;
71034;Laerm;58847;52.378;4.740;2022-12-10T00:35:40;38.08;33.13;46.56;;
71034;Laerm;58847;52.378;4.740;2022-12-10T00:35:50;37.15;33.60;44.44;;
71034;Laerm;58847;52.378;4.740;2022-12-10T00:36:01;36.72;33.37;44.52;;
71034;Laerm;58847;52.378;4.740;2022-12-10T00:36:13;37.16;34.41;44.20;;
71034;Laerm;58847;52.378;4.740;2022-12-10T00:36:28;36.74;33.52;41.98;;
71034;Laerm;58847;52.378;4.740;2022-12-10T00:36:46;37.11;33.07;41.99;;
71034;Laerm;58847;52.378;4.740;2022-12-10T00:36:56;39.15;33.54;49.56;;
71034;Laerm;58847;52.378;4.740;2022-12-10T00:37:07;47.74;42.31;56.63;;
71034;Laerm;58847;52.378;4.740;2022-12-10T00:37:17;42.37;36.50;47.09;;
71034;Laerm;58847;52.378;4.740;2022-12-10T00:37:27;37.33;33.38;41.86;;
71034;Laerm;58847;52.378;4.740;2022-12-10T00:37:38;36.32;33.29;40.66;;
71034;Laerm;58847;52.378;4.740;2022-12-10T00:37:48;36.87;33.04;42.41;;
71034;Laerm;58847;52.378;4.740;2022-12-10T00:37:58;36.78;32.77;44.54;;
71034;Laerm;58847;52.378;4.740;2022-12-10T00:38:09;41.09;33.93;54.18;;
71034;Laerm;58847;52.378;4.740;2022-12-10T00:38:19;36.62;33.08;43.39;;
71034;Laerm;58847;52.378;4.740;2022-12-10T00:38:29;36.57;33.16;41.76;;
71034;Laerm;58847;52.378;4.740;2022-12-10T00:38:40;36.73;33.46;41.63;;
71034;Laerm;58847;52.378;4.740;2022-12-10T00:38:50;37.87;33.46;43.19;;
71034;Laerm;58847;52.378;4.740;2022-12-10T00:39:01;48.13;33.71;63.30;;
71034;Laerm;58847;52.378;4.740;2022-12-10T00:39:12;37.25;33.31;43.11;;
71034;Laerm;58847;52.378;4.740;2022-12-10T00:39:22;38.55;33.31;44.65;;
71034;Laerm;58847;52.378;4.740;2022-12-10T00:39:33;38.29;34.14;45.45;;
71034;Laerm;58847;52.378;4.740;2022-12-10T00:39:43;36.62;33.25;42.67;;
71034;Laerm;58847;52.378;4.740;2022-12-10T00:39:53;43.20;33.98;56.51;;
71034;Laerm;58847;52.378;4.740;2022-12-10T00:40:04;37.95;34.18;49.17;;
71034;Laerm;58847;52.378;4.740;2022-12-10T00:40:14;37.47;33.62;44.61;;
71034;Laerm;58847;52.378;4.740;2022-12-10T00:40:25;36.54;33.31;43.51;;
71034;Laerm;58847;52.378;4.740;2022-12-10T00:40:35;38.33;32.90;48.71;;
71034;Laerm;58847;52.378;4.740;2022-12-10T00:40:45;40.41;33.68;55.10;;
71034;Laerm;58847;52.378;4.740;2022-12-10T00:40:55;37.26;33.71;43.32;;
71034;Laerm;58847;52.378;4.740;2022-12-10T00:41:06;38.59;34.93;43.44;;
71034;Laerm;58847;52.378;4.740;2022-12-10T00:41:16;38.27;34.75;43.82;;
71034;Laerm;58847;52.378;4.740;2022-12-10T00:41:26;37.96;34.81;44.28;;
71034;Laerm;58847;52.378;4.740;2022-12-10T00:41:37;43.36;33.35;57.75;;
71034;Laerm;58847;52.378;4.740;2022-12-10T00:41:47;41.45;33.81;50.93;;
71034;Laerm;58847;52.378;4.740;2022-12-10T00:41:57;41.15;34.69;51.78;;
71034;Laerm;58847;52.378;4.740;2022-12-10T00:42:08;42.47;34.74;53.53;;
71034;Laerm;58847;52.378;4.740;2022-12-10T00:42:18;37.27;33.49;44.86;;
71034;Laerm;58847;52.378;4.740;2022-12-10T00:42:28;36.61;32.15;43.03;;
71034;Laerm;58847;52.378;4.740;2022-12-10T00:42:45;41.19;34.22;49.46;;
71034;Laerm;58847;52.378;4.740;2022-12-10T00:42:55;36.49;32.92;44.74;;
71034;Laerm;58847;52.378;4.740;2022-12-10T00:43:06;40.80;32.51;48.18;;
71034;Laerm;58847;52.378;4.740;2022-12-10T00:43:16;47.11;38.51;54.65;;
71034;Laerm;58847;52.378;4.740;2022-12-10T00:43:26;43.40;34.10;48.75;;
71034;Laerm;58847;52.378;4.740;2022-12-10T00:43:37;36.15;32.60;43.71;;
71034;Laerm;58847;52.378;4.740;2022-12-10T00:43:47;36.74;32.66;42.30;;
71034;Laerm;58847;52.378;4.740;2022-12-10T00:43:58;37.37;33.31;44.57;;
71034;Laerm;58847;52.378;4.740;2022-12-10T00:44:08;44.56;35.63;58.86;;
71034;Laerm;58847;52.378;4.740;2022-12-10T00:44:18;40.41;33.32;52.41;;
71034;Laerm;58847;52.378;4.740;2022-12-10T00:44:29;36.04;32.39;40.07;;
71034;Laerm;58847;52.378;4.740;2022-12-10T00:44:39;37.07;32.76;46.87;;
71034;Laerm;58847;52.378;4.740;2022-12-10T00:44:49;42.59;34.48;57.38;;
71034;Laerm;58847;52.378;4.740;2022-12-10T00:44:59;48.46;35.35;59.84;;
71034;Laerm;58847;52.378;4.740;2022-12-10T00:45:10;42.50;34.69;58.33;;
71034;Laerm;58847;52.378;4.740;2022-12-10T00:45:20;39.53;34.72;48.60;;
71034;Laerm;58847;52.378;4.740;2022-12-10T00:45:30;40.32;35.02;51.18;;
71034;Laerm;58847;52.378;4.740;2022-12-10T00:45:40;44.53;36.44;56.01;;
71034;Laerm;58847;52.378;4.740;2022-12-10T00:45:51;43.57;34.00;56.46;;
71034;Laerm;58847;52.378;4.740;2022-12-10T00:46:02;38.53;34.43;45.98;;
71034;Laerm;58847;52.378;4.740;2022-12-10T00:46:12;37.78;34.61;43.21;;
71034;Laerm;58847;52.378;4.740;2022-12-10T00:46:23;37.67;33.99;43.50;;
71034;Laerm;58847;52.378;4.740;2022-12-10T00:46:33;38.42;34.45;47.20;;
71034;Laerm;58847;52.378;4.740;2022-12-10T00:46:44;42.24;36.68;52.06;;
71034;Laerm;58847;52.378;4.740;2022-12-10T00:46:54;40.27;34.87;51.78;;
71034;Laerm;58847;52.378;4.740;2022-12-10T00:47:04;42.03;34.16;53.13;;
71034;Laerm;58847;52.378;4.740;2022-12-10T00:47:21;43.33;34.29;54.53;;
71034;Laerm;58847;52.378;4.740;2022-12-10T00:47:31;41.13;33.59;53.39;;
71034;Laerm;58847;52.378;4.740;2022-12-10T00:47:42;48.85;35.74;61.75;;
71034;Laerm;58847;52.378;4.740;2022-12-10T00:47:52;46.64;33.92;57.75;;
71034;Laerm;58847;52.378;4.740;2022-12-10T00:48:02;48.33;34.99;57.06;;
71034;Laerm;58847;52.378;4.740;2022-12-10T00:48:12;44.75;35.08;58.37;;
71034;Laerm;58847;52.378;4.740;2022-12-10T00:48:23;44.61;35.38;54.41;;
71034;Laerm;58847;52.378;4.740;2022-12-10T00:48:33;46.50;34.18;58.85;;
71034;Laerm;58847;52.378;4.740;2022-12-10T00:48:44;45.81;34.19;62.59;;
71034;Laerm;58847;52.378;4.740;2022-12-10T00:48:54;53.76;35.05;66.11;;
71034;Laerm;58847;52.378;4.740;2022-12-10T00:49:12;41.66;34.65;54.18;;
71034;Laerm;58847;52.378;4.740;2022-12-10T00:49:25;44.86;35.00;57.31;;
71034;Laerm;58847;52.378;4.740;2022-12-10T00:49:35;46.95;36.01;59.02;;
71034;Laerm;58847;52.378;4.740;2022-12-10T00:49:45;47.04;34.36;58.69;;
71034;Laerm;58847;52.378;4.740;2022-12-10T00:49:56;48.01;34.73;61.70;;
71034;Laerm;58847;52.378;4.740;2022-12-10T00:50:06;54.17;34.33;69.51;;
71034;Laerm;58847;52.378;4.740;2022-12-10T00:50:16;50.95;36.12;62.17;;
71034;Laerm;58847;52.378;4.740;2022-12-10T00:50:27;53.75;37.49;64.13;;
71034;Laerm;58847;52.378;4.740;2022-12-10T00:50:37;50.73;35.83;62.35;;
71034;Laerm;58847;52.378;4.740;2022-12-10T00:51:11;49.75;34.21;64.98;;
71034;Laerm;58847;52.378;4.740;2022-12-10T00:51:22;48.08;33.00;63.75;;
71034;Laerm;58847;52.378;4.740;2022-12-10T00:51:33;50.87;36.07;62.74;;
71034;Laerm;58847;52.378;4.740;2022-12-10T00:51:43;42.71;33.10;52.25;;
71034;Laerm;58847;52.378;4.740;2022-12-10T00:51:59;47.67;34.20;65.41;;
71034;Laerm;58847;52.378;4.740;2022-12-10T00:52:10;52.08;32.85;69.13;;
71034;Laerm;58847;52.378;4.740;2022-12-10T00:52:20;54.43;34.05;67.19;;
71034;Laerm;58847;52.378;4.740;2022-12-10T00:52:31;53.25;34.92;69.88;;
71034;Laerm;58847;52.378;4.740;2022-12-10T00:52:41;51.05;34.17;61.35;;
71034;Laerm;58847;52.378;4.740;2022-12-10T00:52:51;53.68;34.62;67.90;;
71034;Laerm;58847;52.378;4.740;2022-12-10T00:53:01;52.54;34.56;68.37;;
71034;Laerm;58847;52.378;4.740;2022-12-10T00:53:12;48.07;33.59;58.92;;
71034;Laerm;58847;52.378;4.740;2022-12-10T00:53:23;48.64;32.85;61.78;;
71034;Laerm;58847;52.378;4.740;2022-12-10T00:53:34;53.33;33.37;68.23;;
71034;Laerm;58847;52.378;4.740;2022-12-10T00:53:46;43.35;32.34;55.69;;
71034;Laerm;58847;52.378;4.740;2022-12-10T00:53:57;36.74;32.48;48.14;;
71034;Laerm;58847;52.378;4.740;2022-12-10T00:54:08;48.30;31.91;62.12;;
71034;Laerm;58847;52.378;4.740;2022-12-10T00:54:19;53.05;32.13;70.79;;
71034;Laerm;58847;52.378;4.740;2022-12-10T00:54:31;52.96;38.41;66.65;;
71034;Laerm;58847;52.378;4.740;2022-12-10T00:54:42;54.98;35.58;65.91;;
71034;Laerm;58847;52.378;4.740;2022-12-10T00:54:52;50.61;34.94;62.69;;
71034;Laerm;58847;52.378;4.740;2022-12-10T00:55:02;47.40;35.33;59.75;;
71034;Laerm;58847;52.378;4.740;2022-12-10T00:55:14;49.63;33.72;59.91;;
71034;Laerm;58847;52.378;4.740;2022-12-10T00:55:24;58.74;32.31;76.30;;
71034;Laerm;58847;52.378;4.740;2022-12-10T00:55:34;52.78;32.33;70.61;;
71034;Laerm;58847;52.378;4.740;2022-12-10T00:55:44;51.75;32.20;64.49;;
71034;Laerm;58847;52.378;4.740;2022-12-10T00:55:55;47.40;33.22;57.94;;
71034;Laerm;58847;52.378;4.740;2022-12-10T00:56:06;49.74;33.60;61.60;;
71034;Laerm;58847;52.378;4.740;2022-12-10T00:56:18;41.62;33.89;55.20;;
71034;Laerm;58847;52.378;4.740;2022-12-10T00:56:35;42.04;37.50;50.03;;
71034;Laerm;58847;52.378;4.740;2022-12-10T00:56:45;44.19;35.35;60.38;;
71034;Laerm;58847;52.378;4.740;2022-12-10T00:56:55;55.55;35.18;75.52;;
71034;Laerm;58847;52.378;4.740;2022-12-10T00:57:05;50.23;35.44;64.38;;
71034;Laerm;58847;52.378;4.740;2022-12-10T00:57:16;46.24;32.51;62.89;;
71034;Laerm;58847;52.378;4.740;2022-12-10T00:57:26;42.17;31.65;58.16;;
71034;Laerm;58847;52.378;4.740;2022-12-10T00:57:36;48.80;30.85;70.83;;
71034;Laerm;58847;52.378;4.740;2022-12-10T00:57:46;41.67;31.54;53.11;;
71034;Laerm;58847;52.378;4.740;2022-12-10T00:58:04;45.25;32.49;58.09;;
71034;Laerm;58847;52.378;4.740;2022-12-10T00:58:14;43.78;31.98;56.17;;
71034;Laerm;58847;52.378;4.740;2022-12-10T00:58:28;44.51;33.60;56.06;;
71034;Laerm;58847;52.378;4.740;2022-12-10T00:58:38;41.34;32.76;58.15;;
71034;Laerm;58847;52.378;4.740;2022-12-10T00:58:50;47.81;31.77;61.58;;
71034;Laerm;58847;52.378;4.740;2022-12-10T00:59:00;40.95;32.24;57.49;;
71034;Laerm;58847;52.378;4.740;2022-12-10T00:59:11;48.54;33.13;64.74;;
71034;Laerm;58847;52.378;4.740;2022-12-10T00:59:22;37.90;32.28;48.65;;
71034;Laerm;58847;52.378;4.740;2022-12-10T00:59:32;50.57;32.79;65.72;;
71034;Laerm;58847;52.378;4.740;2022-12-10T00:59:42;47.19;33.67;62.31;;
71034;Laerm;58847;52.378;4.740;2022-12-10T00:59:52;46.63;33.34;58.98;;
71034;Laerm;58847;52.378;4.740;2022-12-10T01:00:03;46.06;34.24;58.55;;
71034;Laerm;58847;52.378;4.740;2022-12-10T01:00:14;45.80;33.15;61.80;;
71034;Laerm;58847;52.378;4.740;2022-12-10T01:00:28;49.98;34.48;59.61;;
71034;Laerm;58847;52.378;4.740;2022-12-10T01:00:38;52.59;34.46;64.80;;
71034;Laerm;58847;52.378;4.740;2022-12-10T01:00:49;50.12;34.37;61.32;;
71034;Laerm;58847;52.378;4.740;2022-12-10T01:01:14;40.34;32.80;55.16;;
71034;Laerm;58847;52.378;4.740;2022-12-10T01:01:35;51.13;33.08;64.54;;
71034;Laerm;58847;52.378;4.740;2022-12-10T01:01:46;36.90;31.08;46.86;;
71034;Laerm;58847;52.378;4.740;2022-12-10T01:01:56;38.21;32.16;49.47;;